Terminal Aerodrome Forecast
Issued by NWS

Home | Current Version | Previous Version | Text Only | Print | Product List | Glossary On
Versions: 1 2 3 4 5 6 7 8 9 10 11 12 13 14
000
FTUS45 KABQ 261700
TAFSAF
TAF
KSAF 261739Z 2618/2718 35011KT P6SM SCT100
     FM262200 32012KT P6SM VCTS BKN100CB
     FM270100 01010KT P6SM BKN120
     FM270600 05007KT P6SM SCT150=

USA.gov is the U.S. government's official web portal to all federal, state and local government web resources and services.